sensor_id;sensor_type;location;lat;lon;timestamp;P1;P2;P0
77777;PMS5003;66966;-34.746;138.604;2023-05-10T00:01:56;0;0;
77777;PMS5003;66966;-34.746;138.604;2023-05-10T00:04:22;0;0;
77777;PMS5003;66966;-34.746;138.604;2023-05-10T00:06:47;0;0;
77777;PMS5003;66966;-34.746;138.604;2023-05-10T00:09:13;0;0;
77777;PMS5003;66966;-34.746;138.604;2023-05-10T00:11:38;0;0;
77777;PMS5003;66966;-34.746;138.604;2023-05-10T00:14:04;1;0;
77777;PMS5003;66966;-34.746;138.604;2023-05-10T00:16:29;0;0;
77777;PMS5003;66966;-34.746;138.604;2023-05-10T00:18:55;0;0;
77777;PMS5003;66966;-34.746;138.604;2023-05-10T00:21:20;0;0;
77777;PMS5003;66966;-34.746;138.604;2023-05-10T00:23:46;1;0;
77777;PMS5003;66966;-34.746;138.604;2023-05-10T00:26:11;0;0;
77777;PMS5003;66966;-34.746;138.604;2023-05-10T00:28:37;0;0;
77777;PMS5003;66966;-34.746;138.604;2023-05-10T00:31:02;0;0;
77777;PMS5003;66966;-34.746;138.604;2023-05-10T00:33:28;0;0;
77777;PMS5003;66966;-34.746;138.604;2023-05-10T00:35:53;1;1;
77777;PMS5003;66966;-34.746;138.604;2023-05-10T00:38:19;0;0;
77777;PMS5003;66966;-34.746;138.604;2023-05-10T00:40:45;0;0;
77777;PMS5003;66966;-34.746;138.604;2023-05-10T00:43:10;0;0;
77777;PMS5003;66966;-34.746;138.604;2023-05-10T00:45:36;1;0;
77777;PMS5003;66966;-34.746;138.604;2023-05-10T00:48:01;0;0;
77777;PMS5003;66966;-34.746;138.604;2023-05-10T00:50:27;0;0;
77777;PMS5003;66966;-34.746;138.604;2023-05-10T00:52:53;0;0;
77777;PMS5003;66966;-34.746;138.604;2023-05-10T00:55:18;0;0;
77777;PMS5003;66966;-34.746;138.604;2023-05-10T00:57:44;0;0;
77777;PMS5003;66966;-34.746;138.604;2023-05-10T01:00:09;0;0;
77777;PMS5003;66966;-34.746;138.604;2023-05-10T01:02:34;0;0;
77777;PMS5003;66966;-34.746;138.604;2023-05-10T01:05:00;0;0;
77777;PMS5003;66966;-34.746;138.604;2023-05-10T01:07:25;1;0;
77777;PMS5003;66966;-34.746;138.604;2023-05-10T01:09:51;0;0;
77777;PMS5003;66966;-34.746;138.604;2023-05-10T01:12:16;0;0;
77777;PMS5003;66966;-34.746;138.604;2023-05-10T01:14:42;0;0;
77777;PMS5003;66966;-34.746;138.604;2023-05-10T01:17:08;1;1;
77777;PMS5003;66966;-34.746;138.604;2023-05-10T01:19:34;0;0;
77777;PMS5003;66966;-34.746;138.604;2023-05-10T01:22:00;0;0;
77777;PMS5003;66966;-34.746;138.604;2023-05-10T01:34:07;0;0;
77777;PMS5003;66966;-34.746;138.604;2023-05-10T01:36:32;0;0;
77777;PMS5003;66966;-34.746;138.604;2023-05-10T01:38:58;0;0;
77777;PMS5003;66966;-34.746;138.604;2023-05-10T01:41:24;0;0;
77777;PMS5003;66966;-34.746;138.604;2023-05-10T01:43:51;0;0;
77777;PMS5003;66966;-34.746;138.604;2023-05-10T01:46:14;0;0;
77777;PMS5003;66966;-34.746;138.604;2023-05-10T01:48:40;0;0;
77777;PMS5003;66966;-34.746;138.604;2023-05-10T01:51:04;0;0;
77777;PMS5003;66966;-34.746;138.604;2023-05-10T01:53:31;0;0;
77777;PMS5003;66966;-34.746;138.604;2023-05-10T01:55:55;0;0;
77777;PMS5003;66966;-34.746;138.604;2023-05-10T01:58:22;0;0;
77777;PMS5003;66966;-34.746;138.604;2023-05-10T02:00:47;0;0;
77777;PMS5003;66966;-34.746;138.604;2023-05-10T02:03:12;0;0;
77777;PMS5003;66966;-34.746;138.604;2023-05-10T02:05:37;0;0;
77777;PMS5003;66966;-34.746;138.604;2023-05-10T02:08:02;0;0;
77777;PMS5003;66966;-34.746;138.604;2023-05-10T02:10:28;0;0;
77777;PMS5003;66966;-34.746;138.604;2023-05-10T02:12:53;0;0;
77777;PMS5003;66966;-34.746;138.604;2023-05-10T02:15:19;0;0;
77777;PMS5003;66966;-34.746;138.604;2023-05-10T02:17:45;0;0;
77777;PMS5003;66966;-34.746;138.604;2023-05-10T02:20:10;0;0;
77777;PMS5003;66966;-34.746;138.604;2023-05-10T02:22:35;0;0;
77777;PMS5003;66966;-34.746;138.604;2023-05-10T02:25:01;0;0;
77777;PMS5003;66966;-34.746;138.604;2023-05-10T02:27:26;0;0;
77777;PMS5003;66966;-34.746;138.604;2023-05-10T02:29:52;1;0;
77777;PMS5003;66966;-34.746;138.604;2023-05-10T02:32:17;0;0;
77777;PMS5003;66966;-34.746;138.604;2023-05-10T02:34:42;0;0;
77777;PMS5003;66966;-34.746;138.604;2023-05-10T02:37:08;0;0;
77777;PMS5003;66966;-34.746;138.604;2023-05-10T02:39:33;0;0;
77777;PMS5003;66966;-34.746;138.604;2023-05-10T02:41:59;0;0;
77777;PMS5003;66966;-34.746;138.604;2023-05-10T02:44:24;0;0;
77777;PMS5003;66966;-34.746;138.604;2023-05-10T02:46:50;0;0;
77777;PMS5003;66966;-34.746;138.604;2023-05-10T02:49:15;0;0;
77777;PMS5003;66966;-34.746;138.604;2023-05-10T02:51:41;0;0;
77777;PMS5003;66966;-34.746;138.604;2023-05-10T02:54:09;0;0;
77777;PMS5003;66966;-34.746;138.604;2023-05-10T02:56:32;0;0;
77777;PMS5003;66966;-34.746;138.604;2023-05-10T02:58:57;0;0;
77777;PMS5003;66966;-34.746;138.604;2023-05-10T03:01:22;0;0;
77777;PMS5003;66966;-34.746;138.604;2023-05-10T03:03:48;0;0;
77777;PMS5003;66966;-34.746;138.604;2023-05-10T03:06:13;0;0;
77777;PMS5003;66966;-34.746;138.604;2023-05-10T03:08:38;0;0;
77777;PMS5003;66966;-34.746;138.604;2023-05-10T03:11:16;0;0;
77777;PMS5003;66966;-34.746;138.604;2023-05-10T03:13:31;0;0;
77777;PMS5003;66966;-34.746;138.604;2023-05-10T03:15:56;0;0;
77777;PMS5003;66966;-34.746;138.604;2023-05-10T03:18:22;0;0;
77777;PMS5003;66966;-34.746;138.604;2023-05-10T03:20:47;0;0;
77777;PMS5003;66966;-34.746;138.604;2023-05-10T03:23:12;0;0;
77777;PMS5003;66966;-34.746;138.604;2023-05-10T03:25:37;0;0;
77777;PMS5003;66966;-34.746;138.604;2023-05-10T03:28:02;0;0;
77777;PMS5003;66966;-34.746;138.604;2023-05-10T03:30:27;0;0;
77777;PMS5003;66966;-34.746;138.604;2023-05-10T03:32:52;0;0;
77777;PMS5003;66966;-34.746;138.604;2023-05-10T03:35:18;0;0;
77777;PMS5003;66966;-34.746;138.604;2023-05-10T03:37:43;0;0;
77777;PMS5003;66966;-34.746;138.604;2023-05-10T03:40:09;0;0;
77777;PMS5003;66966;-34.746;138.604;2023-05-10T03:42:34;0;0;
77777;PMS5003;66966;-34.746;138.604;2023-05-10T03:44:59;0;0;
77777;PMS5003;66966;-34.746;138.604;2023-05-10T03:47:25;0;0;
77777;PMS5003;66966;-34.746;138.604;2023-05-10T03:49:50;0;0;
77777;PMS5003;66966;-34.746;138.604;2023-05-10T03:52:15;0;0;
77777;PMS5003;66966;-34.746;138.604;2023-05-10T03:54:41;0;0;
77777;PMS5003;66966;-34.746;138.604;2023-05-10T03:57:06;0;0;
77777;PMS5003;66966;-34.746;138.604;2023-05-10T03:59:32;0;0;
77777;PMS5003;66966;-34.746;138.604;2023-05-10T04:01:57;0;0;
77777;PMS5003;66966;-34.746;138.604;2023-05-10T04:04:22;0;0;
77777;PMS5003;66966;-34.746;138.604;2023-05-10T04:06:48;0;0;
77777;PMS5003;66966;-34.746;138.604;2023-05-10T04:09:13;0;0;
77777;PMS5003;66966;-34.746;138.604;2023-05-10T04:11:38;0;0;
77777;PMS5003;66966;-34.746;138.604;2023-05-10T04:14:04;0;0;
77777;PMS5003;66966;-34.746;138.604;2023-05-10T04:16:29;0;0;
77777;PMS5003;66966;-34.746;138.604;2023-05-10T04:18:55;0;0;
77777;PMS5003;66966;-34.746;138.604;2023-05-10T04:21:20;0;0;
77777;PMS5003;66966;-34.746;138.604;2023-05-10T04:23:45;0;0;
77777;PMS5003;66966;-34.746;138.604;2023-05-10T04:26:11;1;1;
77777;PMS5003;66966;-34.746;138.604;2023-05-10T04:28:36;0;0;
77777;PMS5003;66966;-34.746;138.604;2023-05-10T04:31:02;1;1;
77777;PMS5003;66966;-34.746;138.604;2023-05-10T04:33:27;0;0;
77777;PMS5003;66966;-34.746;138.604;2023-05-10T04:35:52;1;1;
77777;PMS5003;66966;-34.746;138.604;2023-05-10T04:38:17;1;1;
77777;PMS5003;66966;-34.746;138.604;2023-05-10T04:40:43;1;1;
77777;PMS5003;66966;-34.746;138.604;2023-05-10T04:43:08;1;1;
77777;PMS5003;66966;-34.746;138.604;2023-05-10T04:45:33;2;1;
77777;PMS5003;66966;-34.746;138.604;2023-05-10T04:47:59;1;1;
77777;PMS5003;66966;-34.746;138.604;2023-05-10T04:50:24;1;1;
77777;PMS5003;66966;-34.746;138.604;2023-05-10T04:52:49;1;1;
77777;PMS5003;66966;-34.746;138.604;2023-05-10T04:55:15;0;0;
77777;PMS5003;66966;-34.746;138.604;2023-05-10T04:57:40;1;1;
77777;PMS5003;66966;-34.746;138.604;2023-05-10T05:00:06;2;2;
77777;PMS5003;66966;-34.746;138.604;2023-05-10T05:02:31;1;1;
77777;PMS5003;66966;-34.746;138.604;2023-05-10T05:04:56;1;1;
77777;PMS5003;66966;-34.746;138.604;2023-05-10T05:07:22;1;1;
77777;PMS5003;66966;-34.746;138.604;2023-05-10T05:09:47;1;1;
77777;PMS5003;66966;-34.746;138.604;2023-05-10T05:12:12;1;1;
77777;PMS5003;66966;-34.746;138.604;2023-05-10T05:14:38;0;0;
77777;PMS5003;66966;-34.746;138.604;2023-05-10T05:17:03;1;1;
77777;PMS5003;66966;-34.746;138.604;2023-05-10T05:19:29;2;1;
77777;PMS5003;66966;-34.746;138.604;2023-05-10T05:21:54;1;1;
77777;PMS5003;66966;-34.746;138.604;2023-05-10T05:24:19;0;0;
77777;PMS5003;66966;-34.746;138.604;2023-05-10T05:26:44;1;1;
77777;PMS5003;66966;-34.746;138.604;2023-05-10T05:29:10;0;0;
77777;PMS5003;66966;-34.746;138.604;2023-05-10T05:31:35;1;1;
77777;PMS5003;66966;-34.746;138.604;2023-05-10T05:34:00;1;1;
77777;PMS5003;66966;-34.746;138.604;2023-05-10T05:36:26;0;0;
77777;PMS5003;66966;-34.746;138.604;2023-05-10T05:38:51;0;0;
77777;PMS5003;66966;-34.746;138.604;2023-05-10T05:41:16;1;1;
77777;PMS5003;66966;-34.746;138.604;2023-05-10T05:43:42;1;1;
77777;PMS5003;66966;-34.746;138.604;2023-05-10T05:46:07;1;1;
77777;PMS5003;66966;-34.746;138.604;2023-05-10T05:48:32;1;1;
77777;PMS5003;66966;-34.746;138.604;2023-05-10T05:50:58;2;2;
77777;PMS5003;66966;-34.746;138.604;2023-05-10T05:53:23;2;2;
77777;PMS5003;66966;-34.746;138.604;2023-05-10T05:55:52;2;2;
77777;PMS5003;66966;-34.746;138.604;2023-05-10T05:58:14;4;4;
77777;PMS5003;66966;-34.746;138.604;2023-05-10T06:00:39;2;2;
77777;PMS5003;66966;-34.746;138.604;2023-05-10T06:03:04;3;3;
77777;PMS5003;66966;-34.746;138.604;2023-05-10T06:05:30;3;3;
77777;PMS5003;66966;-34.746;138.604;2023-05-10T06:07:55;4;4;
77777;PMS5003;66966;-34.746;138.604;2023-05-10T06:10:20;5;4;
77777;PMS5003;66966;-34.746;138.604;2023-05-10T06:12:46;2;2;
77777;PMS5003;66966;-34.746;138.604;2023-05-10T06:15:11;4;3;
77777;PMS5003;66966;-34.746;138.604;2023-05-10T06:17:36;3;3;
77777;PMS5003;66966;-34.746;138.604;2023-05-10T06:20:02;3;3;
77777;PMS5003;66966;-34.746;138.604;2023-05-10T06:22:27;5;4;
77777;PMS5003;66966;-34.746;138.604;2023-05-10T06:24:52;2;2;
77777;PMS5003;66966;-34.746;138.604;2023-05-10T06:27:18;5;4;
77777;PMS5003;66966;-34.746;138.604;2023-05-10T06:29:43;3;3;
77777;PMS5003;66966;-34.746;138.604;2023-05-10T06:32:09;2;2;
77777;PMS5003;66966;-34.746;138.604;2023-05-10T06:34:34;3;3;
77777;PMS5003;66966;-34.746;138.604;2023-05-10T06:36:59;4;4;
77777;PMS5003;66966;-34.746;138.604;2023-05-10T06:39:24;5;4;
77777;PMS5003;66966;-34.746;138.604;2023-05-10T06:41:49;5;4;
77777;PMS5003;66966;-34.746;138.604;2023-05-10T06:44:15;5;4;
77777;PMS5003;66966;-34.746;138.604;2023-05-10T06:46:40;5;4;
77777;PMS5003;66966;-34.746;138.604;2023-05-10T06:49:05;4;4;
77777;PMS5003;66966;-34.746;138.604;2023-05-10T06:51:31;4;4;
77777;PMS5003;66966;-34.746;138.604;2023-05-10T06:53:56;5;5;
77777;PMS5003;66966;-34.746;138.604;2023-05-10T06:56:22;5;5;
77777;PMS5003;66966;-34.746;138.604;2023-05-10T06:58:47;5;4;
77777;PMS5003;66966;-34.746;138.604;2023-05-10T07:01:12;6;5;
77777;PMS5003;66966;-34.746;138.604;2023-05-10T07:03:37;8;7;
77777;PMS5003;66966;-34.746;138.604;2023-05-10T07:06:03;5;5;
77777;PMS5003;66966;-34.746;138.604;2023-05-10T07:08:29;8;5;
77777;PMS5003;66966;-34.746;138.604;2023-05-10T07:10:53;8;7;
77777;PMS5003;66966;-34.746;138.604;2023-05-10T07:13:19;4;4;
77777;PMS5003;66966;-34.746;138.604;2023-05-10T07:15:44;3;3;
77777;PMS5003;66966;-34.746;138.604;2023-05-10T07:18:10;4;4;
77777;PMS5003;66966;-34.746;138.604;2023-05-10T07:20:35;4;4;
77777;PMS5003;66966;-34.746;138.604;2023-05-10T07:23:00;7;6;
77777;PMS5003;66966;-34.746;138.604;2023-05-10T07:25:26;6;6;
77777;PMS5003;66966;-34.746;138.604;2023-05-10T07:27:51;6;6;
77777;PMS5003;66966;-34.746;138.604;2023-05-10T07:30:17;5;5;
77777;PMS5003;66966;-34.746;138.604;2023-05-10T07:32:43;6;5;
77777;PMS5003;66966;-34.746;138.604;2023-05-10T07:35:08;4;4;
77777;PMS5003;66966;-34.746;138.604;2023-05-10T07:37:33;6;5;
77777;PMS5003;66966;-34.746;138.604;2023-05-10T07:39:58;4;4;
77777;PMS5003;66966;-34.746;138.604;2023-05-10T07:42:24;7;7;
77777;PMS5003;66966;-34.746;138.604;2023-05-10T07:44:50;5;5;
77777;PMS5003;66966;-34.746;138.604;2023-05-10T07:47:15;6;6;
77777;PMS5003;66966;-34.746;138.604;2023-05-10T07:49:40;6;5;
77777;PMS5003;66966;-34.746;138.604;2023-05-10T07:52:06;5;5;
77777;PMS5003;66966;-34.746;138.604;2023-05-10T07:54:31;6;6;
77777;PMS5003;66966;-34.746;138.604;2023-05-10T07:56:57;5;5;
77777;PMS5003;66966;-34.746;138.604;2023-05-10T07:59:22;7;7;
77777;PMS5003;66966;-34.746;138.604;2023-05-10T08:01:47;6;6;
77777;PMS5003;66966;-34.746;138.604;2023-05-10T08:04:13;7;6;
77777;PMS5003;66966;-34.746;138.604;2023-05-10T08:06:38;5;5;
77777;PMS5003;66966;-34.746;138.604;2023-05-10T08:09:04;9;8;
77777;PMS5003;66966;-34.746;138.604;2023-05-10T08:11:29;8;8;
77777;PMS5003;66966;-34.746;138.604;2023-05-10T08:13:55;12;10;
77777;PMS5003;66966;-34.746;138.604;2023-05-10T08:16:20;7;7;
77777;PMS5003;66966;-34.746;138.604;2023-05-10T08:18:46;12;10;
77777;PMS5003;66966;-34.746;138.604;2023-05-10T08:21:11;7;7;
77777;PMS5003;66966;-34.746;138.604;2023-05-10T08:23:37;5;5;
77777;PMS5003;66966;-34.746;138.604;2023-05-10T08:26:02;8;6;
77777;PMS5003;66966;-34.746;138.604;2023-05-10T08:28:28;7;7;
77777;PMS5003;66966;-34.746;138.604;2023-05-10T08:30:53;8;8;
77777;PMS5003;66966;-34.746;138.604;2023-05-10T08:33:19;6;6;
77777;PMS5003;66966;-34.746;138.604;2023-05-10T08:35:44;6;6;
77777;PMS5003;66966;-34.746;138.604;2023-05-10T08:38:10;7;7;
77777;PMS5003;66966;-34.746;138.604;2023-05-10T08:40:35;6;5;
77777;PMS5003;66966;-34.746;138.604;2023-05-10T08:43:02;7;7;
77777;PMS5003;66966;-34.746;138.604;2023-05-10T08:45:27;7;7;
77777;PMS5003;66966;-34.746;138.604;2023-05-10T08:47:52;7;7;
77777;PMS5003;66966;-34.746;138.604;2023-05-10T08:50:17;5;4;
77777;PMS5003;66966;-34.746;138.604;2023-05-10T08:52:43;7;7;
77777;PMS5003;66966;-34.746;138.604;2023-05-10T08:55:08;5;5;
77777;PMS5003;66966;-34.746;138.604;2023-05-10T08:57:34;6;5;
77777;PMS5003;66966;-34.746;138.604;2023-05-10T09:00:00;4;4;
77777;PMS5003;66966;-34.746;138.604;2023-05-10T09:02:25;5;5;
77777;PMS5003;66966;-34.746;138.604;2023-05-10T09:04:50;5;5;
77777;PMS5003;66966;-34.746;138.604;2023-05-10T09:07:16;6;5;
77777;PMS5003;66966;-34.746;138.604;2023-05-10T09:09:42;5;5;
77777;PMS5003;66966;-34.746;138.604;2023-05-10T09:12:07;6;6;
77777;PMS5003;66966;-34.746;138.604;2023-05-10T09:14:33;5;4;
77777;PMS5003;66966;-34.746;138.604;2023-05-10T09:16:58;5;5;
77777;PMS5003;66966;-34.746;138.604;2023-05-10T09:19:24;6;6;
77777;PMS5003;66966;-34.746;138.604;2023-05-10T09:21:50;7;6;
77777;PMS5003;66966;-34.746;138.604;2023-05-10T09:24:15;6;5;
77777;PMS5003;66966;-34.746;138.604;2023-05-10T09:29:06;7;7;
77777;PMS5003;66966;-34.746;138.604;2023-05-10T09:33:57;6;6;
77777;PMS5003;66966;-34.746;138.604;2023-05-10T09:36:22;13;13;
77777;PMS5003;66966;-34.746;138.604;2023-05-10T09:38:48;10;9;
77777;PMS5003;66966;-34.746;138.604;2023-05-10T09:41:17;10;9;
77777;PMS5003;66966;-34.746;138.604;2023-05-10T09:43:39;13;13;
77777;PMS5003;66966;-34.746;138.604;2023-05-10T09:46:09;16;15;
77777;PMS5003;66966;-34.746;138.604;2023-05-10T09:48:30;18;18;
77777;PMS5003;66966;-34.746;138.604;2023-05-10T09:50:57;16;16;
77777;PMS5003;66966;-34.746;138.604;2023-05-10T09:53:21;15;15;
77777;PMS5003;66966;-34.746;138.604;2023-05-10T09:55:47;15;15;
77777;PMS5003;66966;-34.746;138.604;2023-05-10T09:58:13;15;14;
77777;PMS5003;66966;-34.746;138.604;2023-05-10T10:00:38;14;13;
77777;PMS5003;66966;-34.746;138.604;2023-05-10T10:03:03;11;11;
77777;PMS5003;66966;-34.746;138.604;2023-05-10T10:05:29;12;11;
77777;PMS5003;66966;-34.746;138.604;2023-05-10T10:07:54;10;10;
77777;PMS5003;66966;-34.746;138.604;2023-05-10T10:10:20;10;10;
77777;PMS5003;66966;-34.746;138.604;2023-05-10T10:12:45;13;12;
77777;PMS5003;66966;-34.746;138.604;2023-05-10T10:15:10;13;11;
77777;PMS5003;66966;-34.746;138.604;2023-05-10T10:17:36;12;12;
77777;PMS5003;66966;-34.746;138.604;2023-05-10T10:20:02;9;9;
77777;PMS5003;66966;-34.746;138.604;2023-05-10T10:22:28;11;10;
77777;PMS5003;66966;-34.746;138.604;2023-05-10T10:24:53;10;9;
77777;PMS5003;66966;-34.746;138.604;2023-05-10T10:27:21;8;8;
77777;PMS5003;66966;-34.746;138.604;2023-05-10T10:29:47;9;9;
77777;PMS5003;66966;-34.746;138.604;2023-05-10T10:32:10;13;13;
77777;PMS5003;66966;-34.746;138.604;2023-05-10T10:34:36;15;14;
77777;PMS5003;66966;-34.746;138.604;2023-05-10T10:37:04;19;19;
77777;PMS5003;66966;-34.746;138.604;2023-05-10T10:39:26;23;21;
77777;PMS5003;66966;-34.746;138.604;2023-05-10T10:41:51;24;23;
77777;PMS5003;66966;-34.746;138.604;2023-05-10T10:44:25;16;16;
77777;PMS5003;66966;-34.746;138.604;2023-05-10T10:49:10;7;7;
77777;PMS5003;66966;-34.746;138.604;2023-05-10T10:51:33;9;8;
77777;PMS5003;66966;-34.746;138.604;2023-05-10T10:53:59;7;7;
77777;PMS5003;66966;-34.746;138.604;2023-05-10T10:56:23;5;5;
77777;PMS5003;66966;-34.746;138.604;2023-05-10T10:58:49;4;4;
77777;PMS5003;66966;-34.746;138.604;2023-05-10T11:01:15;5;4;
77777;PMS5003;66966;-34.746;138.604;2023-05-10T11:03:41;3;2;
77777;PMS5003;66966;-34.746;138.604;2023-05-10T11:06:06;6;4;
77777;PMS5003;66966;-34.746;138.604;2023-05-10T11:08:32;4;3;
77777;PMS5003;66966;-34.746;138.604;2023-05-10T11:13:27;2;2;
77777;PMS5003;66966;-34.746;138.604;2023-05-10T11:15:49;3;3;
77777;PMS5003;66966;-34.746;138.604;2023-05-10T11:18:17;2;2;
77777;PMS5003;66966;-34.746;138.604;2023-05-10T11:20:39;2;2;
77777;PMS5003;66966;-34.746;138.604;2023-05-10T11:25:31;3;3;
77777;PMS5003;66966;-34.746;138.604;2023-05-10T11:27:57;3;3;
77777;PMS5003;66966;-34.746;138.604;2023-05-10T11:30:22;3;3;
77777;PMS5003;66966;-34.746;138.604;2023-05-10T11:32:48;2;2;
77777;PMS5003;66966;-34.746;138.604;2023-05-10T11:35:13;3;3;
77777;PMS5003;66966;-34.746;138.604;2023-05-10T11:37:41;2;2;
77777;PMS5003;66966;-34.746;138.604;2023-05-10T11:40:05;2;2;
77777;PMS5003;66966;-34.746;138.604;2023-05-10T11:42:30;4;4;
77777;PMS5003;66966;-34.746;138.604;2023-05-10T11:44:56;3;3;
77777;PMS5003;66966;-34.746;138.604;2023-05-10T11:47:21;2;2;
77777;PMS5003;66966;-34.746;138.604;2023-05-10T11:49:47;2;2;
77777;PMS5003;66966;-34.746;138.604;2023-05-10T11:52:13;2;2;
77777;PMS5003;66966;-34.746;138.604;2023-05-10T11:54:38;2;2;
77777;PMS5003;66966;-34.746;138.604;2023-05-10T11:57:04;2;2;
77777;PMS5003;66966;-34.746;138.604;2023-05-10T11:59:29;1;1;
77777;PMS5003;66966;-34.746;138.604;2023-05-10T12:01:55;3;3;
77777;PMS5003;66966;-34.746;138.604;2023-05-10T12:06:47;2;2;
77777;PMS5003;66966;-34.746;138.604;2023-05-10T12:09:12;2;2;
77777;PMS5003;66966;-34.746;138.604;2023-05-10T12:11:39;2;2;
77777;PMS5003;66966;-34.746;138.604;2023-05-10T12:14:04;4;3;
77777;PMS5003;66966;-34.746;138.604;2023-05-10T12:16:29;2;2;
77777;PMS5003;66966;-34.746;138.604;2023-05-10T12:18:56;4;4;
77777;PMS5003;66966;-34.746;138.604;2023-05-10T12:21:20;1;1;
77777;PMS5003;66966;-34.746;138.604;2023-05-10T12:23:46;2;2;
77777;PMS5003;66966;-34.746;138.604;2023-05-10T12:26:12;1;1;
77777;PMS5003;66966;-34.746;138.604;2023-05-10T12:28:37;2;2;
77777;PMS5003;66966;-34.746;138.604;2023-05-10T12:31:03;3;3;
77777;PMS5003;66966;-34.746;138.604;2023-05-10T12:35:54;2;2;
77777;PMS5003;66966;-34.746;138.604;2023-05-10T12:38:25;2;2;
77777;PMS5003;66966;-34.746;138.604;2023-05-10T12:40:45;1;1;
77777;PMS5003;66966;-34.746;138.604;2023-05-10T12:43:11;2;2;
77777;PMS5003;66966;-34.746;138.604;2023-05-10T12:45:36;2;2;
77777;PMS5003;66966;-34.746;138.604;2023-05-10T12:48:02;3;3;
77777;PMS5003;66966;-34.746;138.604;2023-05-10T12:50:28;2;2;
77777;PMS5003;66966;-34.746;138.604;2023-05-10T12:52:53;2;2;
77777;PMS5003;66966;-34.746;138.604;2023-05-10T12:55:20;2;2;
77777;PMS5003;66966;-34.746;138.604;2023-05-10T12:57:45;3;3;
77777;PMS5003;66966;-34.746;138.604;2023-05-10T13:00:11;4;3;
77777;PMS5003;66966;-34.746;138.604;2023-05-10T13:02:36;2;2;
77777;PMS5003;66966;-34.746;138.604;2023-05-10T13:05:02;3;2;
77777;PMS5003;66966;-34.746;138.604;2023-05-10T13:07:28;2;2;
77777;PMS5003;66966;-34.746;138.604;2023-05-10T13:09:53;3;3;
77777;PMS5003;66966;-34.746;138.604;2023-05-10T13:12:19;5;4;
77777;PMS5003;66966;-34.746;138.604;2023-05-10T13:14:44;3;3;
77777;PMS5003;66966;-34.746;138.604;2023-05-10T13:17:10;3;3;
77777;PMS5003;66966;-34.746;138.604;2023-05-10T13:19:36;3;3;
77777;PMS5003;66966;-34.746;138.604;2023-05-10T13:22:02;3;3;
77777;PMS5003;66966;-34.746;138.604;2023-05-10T13:24:27;3;3;
77777;PMS5003;66966;-34.746;138.604;2023-05-10T13:26:53;4;4;
77777;PMS5003;66966;-34.746;138.604;2023-05-10T13:29:18;4;4;
77777;PMS5003;66966;-34.746;138.604;2023-05-10T13:31:45;3;3;
77777;PMS5003;66966;-34.746;138.604;2023-05-10T13:34:10;4;4;
77777;PMS5003;66966;-34.746;138.604;2023-05-10T13:36:35;6;6;
77777;PMS5003;66966;-34.746;138.604;2023-05-10T13:39:01;4;4;
77777;PMS5003;66966;-34.746;138.604;2023-05-10T13:41:27;3;3;
77777;PMS5003;66966;-34.746;138.604;2023-05-10T13:43:53;7;5;
77777;PMS5003;66966;-34.746;138.604;2023-05-10T13:46:18;3;3;
77777;PMS5003;66966;-34.746;138.604;2023-05-10T13:48:44;3;3;
77777;PMS5003;66966;-34.746;138.604;2023-05-10T13:51:09;4;4;
77777;PMS5003;66966;-34.746;138.604;2023-05-10T13:53:35;3;3;
77777;PMS5003;66966;-34.746;138.604;2023-05-10T13:56:01;5;3;
77777;PMS5003;66966;-34.746;138.604;2023-05-10T13:58:27;4;4;
77777;PMS5003;66966;-34.746;138.604;2023-05-10T14:00:52;4;4;
77777;PMS5003;66966;-34.746;138.604;2023-05-10T14:03:18;4;4;
77777;PMS5003;66966;-34.746;138.604;2023-05-10T14:05:44;5;5;
77777;PMS5003;66966;-34.746;138.604;2023-05-10T14:08:10;4;4;
77777;PMS5003;66966;-34.746;138.604;2023-05-10T14:10:35;8;7;
77777;PMS5003;66966;-34.746;138.604;2023-05-10T14:13:01;4;4;
77777;PMS5003;66966;-34.746;138.604;2023-05-10T14:15:26;5;5;
77777;PMS5003;66966;-34.746;138.604;2023-05-10T14:17:53;5;5;
77777;PMS5003;66966;-34.746;138.604;2023-05-10T14:20:18;5;5;
77777;PMS5003;66966;-34.746;138.604;2023-05-10T14:22:44;5;5;
77777;PMS5003;66966;-34.746;138.604;2023-05-10T14:25:09;4;4;
77777;PMS5003;66966;-34.746;138.604;2023-05-10T14:27:35;5;5;
77777;PMS5003;66966;-34.746;138.604;2023-05-10T14:30:01;8;7;
77777;PMS5003;66966;-34.746;138.604;2023-05-10T14:32:27;6;6;
77777;PMS5003;66966;-34.746;138.604;2023-05-10T14:34:53;6;6;
77777;PMS5003;66966;-34.746;138.604;2023-05-10T14:37:18;8;8;
77777;PMS5003;66966;-34.746;138.604;2023-05-10T14:39:44;9;7;
77777;PMS5003;66966;-34.746;138.604;2023-05-10T14:42:09;9;9;
77777;PMS5003;66966;-34.746;138.604;2023-05-10T14:44:35;9;8;
77777;PMS5003;66966;-34.746;138.604;2023-05-10T14:47:01;7;7;
77777;PMS5003;66966;-34.746;138.604;2023-05-10T14:49:27;7;7;
77777;PMS5003;66966;-34.746;138.604;2023-05-10T14:51:52;6;6;
77777;PMS5003;66966;-34.746;138.604;2023-05-10T14:54:18;8;8;
77777;PMS5003;66966;-34.746;138.604;2023-05-10T14:56:44;5;5;
77777;PMS5003;66966;-34.746;138.604;2023-05-10T14:59:10;6;6;
77777;PMS5003;66966;-34.746;138.604;2023-05-10T15:01:35;4;4;
77777;PMS5003;66966;-34.746;138.604;2023-05-10T15:04:01;6;6;
77777;PMS5003;66966;-34.746;138.604;2023-05-10T15:06:31;7;7;
77777;PMS5003;66966;-34.746;138.604;2023-05-10T15:08:52;6;6;
77777;PMS5003;66966;-34.746;138.604;2023-05-10T15:11:18;7;7;
77777;PMS5003;66966;-34.746;138.604;2023-05-10T15:13:44;6;6;
77777;PMS5003;66966;-34.746;138.604;2023-05-10T15:16:09;8;7;
77777;PMS5003;66966;-34.746;138.604;2023-05-10T15:18:35;6;6;
77777;PMS5003;66966;-34.746;138.604;2023-05-10T15:21:01;8;8;
77777;PMS5003;66966;-34.746;138.604;2023-05-10T15:23:27;7;7;
77777;PMS5003;66966;-34.746;138.604;2023-05-10T15:25:52;4;4;
77777;PMS5003;66966;-34.746;138.604;2023-05-10T15:28:18;6;5;
77777;PMS5003;66966;-34.746;138.604;2023-05-10T15:30:44;6;6;
77777;PMS5003;66966;-34.746;138.604;2023-05-10T15:33:10;6;5;
77777;PMS5003;66966;-34.746;138.604;2023-05-10T15:35:36;7;6;
77777;PMS5003;66966;-34.746;138.604;2023-05-10T15:38:01;4;4;
77777;PMS5003;66966;-34.746;138.604;2023-05-10T15:40:27;5;5;
77777;PMS5003;66966;-34.746;138.604;2023-05-10T15:42:53;3;3;
77777;PMS5003;66966;-34.746;138.604;2023-05-10T15:45:19;4;4;
77777;PMS5003;66966;-34.746;138.604;2023-05-10T15:47:45;4;4;
77777;PMS5003;66966;-34.746;138.604;2023-05-10T15:50:10;4;4;
77777;PMS5003;66966;-34.746;138.604;2023-05-10T15:52:36;4;4;
77777;PMS5003;66966;-34.746;138.604;2023-05-10T15:55:02;5;5;
77777;PMS5003;66966;-34.746;138.604;2023-05-10T15:57:27;5;5;
77777;PMS5003;66966;-34.746;138.604;2023-05-10T15:59:54;4;4;
77777;PMS5003;66966;-34.746;138.604;2023-05-10T16:02:19;10;8;
77777;PMS5003;66966;-34.746;138.604;2023-05-10T16:04:45;7;7;
77777;PMS5003;66966;-34.746;138.604;2023-05-10T16:07:11;6;6;
77777;PMS5003;66966;-34.746;138.604;2023-05-10T16:09:37;9;7;
77777;PMS5003;66966;-34.746;138.604;2023-05-10T16:12:02;7;7;
77777;PMS5003;66966;-34.746;138.604;2023-05-10T16:14:28;5;5;